KHQZ

Mesquite Metro Airport

Mesquite, Texas, USA
METAR KHQZ 230755Z AUTO 00000KT 1 3/4SM SCT006 OVC012 05/04 A3025 RMK AO1 VIS 3/4V3 P0055 T00450041
Observed Flight Rules
Feb-23 @ 07:55 UTC (15 minutes ago) Instrument Flight Rules
Wind Visibility Clouds
Calm 1 3/4 miles
  • Scattered at 600' AGL
  • Overcast at 1,200' AGL
Temperatures Readings Precipitation
Current 5°C / 41°F
Dewpoint 4°C / 39°F
Humidity 93%
Altimeter 30.25" Hg
Pressure 1024 hPa
Elevation 136
Current Rain 0.55
METAR KHQZ 230755Z AUTO 00000KT 1 3/4SM SCT006 OVC012 05/04 A3025 RMK AO1 VIS 3/4V3 P0055 T00450041
Observed Flight Rules
Feb-23 @ 07:55 UTC
(15 minutes ago)
IFR
Wind Visibility
Calm 1 3/4 miles
Clouds
  • Scattered at 600' AGL
  • Overcast at 1,200' AGL
Temperature Dewpoint
5°C / 41°F 4°C / 39°F
Humidity Altimeter Pressure
93% 30.25" Hg 1024 hPa
Current Rain
0.55